HST,Max TemperatureF,Mean TemperatureF,Min TemperatureF,Max Dew PointF,MeanDew PointF,Min DewpointF,Max Humidity, Mean Humidity, Min Humidity, Max Sea Level PressureIn, Mean Sea Level PressureIn, Min Sea Level PressureIn, Max VisibilityMiles, Mean VisibilityMiles, Min VisibilityMiles, Max Wind SpeedMPH, Mean Wind SpeedMPH, Max Gust SpeedMPH,PrecipitationIn, CloudCover, Events, WindDirDegrees
2013-11-1,84,78,72,68,64,60,79,62,47,30.04,30.00,29.94,10,10,10,14,8,,0.00,3,,105
2013-11-2,84,78,73,67,65,63,79,63,53,30.03,29.98,29.94,10,10,10,17,8,24,0.00,3,Rain,135
2013-11-3,82,78,73,70,67,62,83,67,58,30.03,29.98,29.92,10,10,10,12,6,,0.03,2,Rain,140
2013-11-4,82,78,73,70,67,64,82,68,58,30.01,29.97,29.91,10,10,10,12,6,,0.00,1,,144
2013-11-5,84,78,72,70,67,62,76,69,60,29.99,29.95,29.91,10,10,10,10,6,,0.00,2,,257
2013-11-6,84,78,73,70,69,64,76,70,60,29.97,29.93,29.86,10,10,10,12,7,,0.00,3,,193
2013-11-7,84,80,75,72,69,65,79,71,63,29.97,29.92,29.88,10,10,10,10,6,,0.00,1,,296
2013-11-8,84,80,77,72,69,61,76,68,52,29.96,29.91,29.85,10,10,10,13,4,18,0.00,2,,261
2013-11-9,84,80,75,69,65,56,74,62,45,29.90,29.85,29.80,10,10,10,10,5,,0.00,2,,116
2013-11-10,84,78,73,70,66,61,84,67,56,29.92,29.85,29.81,10,10,10,21,8,30,0.00,4,,67
2013-11-11,86,79,72,69,64,58,87,62,41,29.93,29.88,29.83,10,10,8,30,12,39,0.35,3,Rain,56
2013-11-12,82,76,70,69,65,59,93,70,47,29.98,29.92,29.88,10,10,7,12,6,,0.61,3,Rain,35
2013-11-13,82,76,69,68,64,62,81,65,52,29.99,29.94,29.89,10,10,10,13,4,,0.02,5,Rain,264
2013-11-14,82,78,73,71,69,64,85,76,65,30.00,29.94,29.88,10,10,10,16,7,,0.12,4,Rain,6
2013-11-15,82,78,75,72,71,68,87,76,67,30.03,29.98,29.95,10,10,10,14,7,,0.00,5,,189
2013-11-16,82,78,75,72,69,68,79,72,60,30.02,29.98,29.92,10,10,10,10,5,,0.00,8,,255
2013-11-17,84,80,75,70,68,64,76,68,56,29.98,29.94,29.89,10,10,10,12,7,,0.00,2,,182
2013-11-18,84,78,73,70,66,63,76,65,48,29.97,29.92,29.86,10,10,10,17,8,,0.00,2,,41
2013-11-19,82,77,72,69,67,64,78,69,58,29.98,29.93,29.87,10,10,10,9,6,,0.00,0,,352
2013-11-20,82,78,73,72,67,60,82,68,56,30.00,29.96,29.90,10,10,10,8,5,,0.01,2,Rain,210
2013-11-21,81,78,75,70,69,66,82,74,64,30.02,29.98,29.91,10,10,10,7,4,,0.00,2,Rain,57
2013-11-22,84,77,70,68,66,62,84,68,56,30.04,29.98,29.92,10,10,10,21,7,,0.00,0,,31
2013-11-23,84,77,70,67,64,60,78,63,49,29.98,29.94,29.87,10,10,10,23,8,30,0.00,1,,17
2013-11-24,84,78,71,64,61,59,76,58,43,29.96,29.93,29.87,10,10,10,13,6,,0.00,1,,9
2013-11-25,82,76,70,65,62,57,73,60,52,30.04,29.97,29.92,10,10,10,9,6,,0.00,0,,176
2013-11-26,82,76,69,67,63,57,73,62,52,30.06,30.01,29.94,10,10,10,9,5,,0.00,0,,152
2013-11-27,84,77,70,66,63,60,73,60,48,30.06,29.99,29.92,10,10,10,16,6,,0.00,0,,35
2013-11-28,82,76,71,67,64,61,76,64,56,30.01,29.96,29.89,10,10,10,9,7,,0.00,1,,75
2013-11-29,82,77,72,71,67,61,84,69,56,29.96,29.92,29.85,10,10,10,15,8,,0.00,1,,34
2013-11-30,84,78,73,72,68,65,83,70,55,29.97,29.93,29.87,10,10,10,25,9,23,0.00,1,,24